1916 NOT_NAMED (1916042S18158)


IBTrACS version v04r00. Visit IBTrACS website for data access.
Please direct all questions to the IBTrACS Q and A forum

Storm track - Intensity - Wind Radii - Intensity Data - Source Data - All data

Summary Information

Storm ID 1916042S18158
Start Feb 10 23Z
End Feb 13 23Z
ATCF IDs
Track status Best track data.

Storm track plot

Map of storm track

Intensity plots

No Intensity information for this storm


Radial wind information

No radial wind information for this storm


Position and Intensity Table

BASIN ISO_TIME_________ NATURE LAT LON
degrees north degrees east
SP 1916-02-10 23:00:00 NR -17.60 157.60
SP 1916-02-11 00:00:00 NR -17.74 157.61
SP 03:00:00 NR -18.15 157.65
SP 06:00:00 NR -18.54 157.67
SP 09:00:00 NR -18.90 157.69
SP 11:00:00 NR -19.10 157.70
SP 12:00:00 NR -19.19 157.70
SP 15:00:00 NR -19.43 157.69
SP 18:00:00 NR -19.66 157.67
SP 21:00:00 NR -19.91 157.63
SP 23:00:00 NR -20.10 157.60
SP 1916-02-12 00:00:00 NR -20.22 157.58
SP 03:00:00 NR -20.61 157.53
SP 06:00:00 NR -21.04 157.45
SP 09:00:00 NR -21.49 157.37
SP 11:00:00 NR -21.80 157.30
SP 12:00:00 NR -21.92 157.25
SP 15:00:00 NR -22.28 157.07
SP 18:00:00 NR -22.68 156.90
SP 21:00:00 NR -23.18 156.80
SP 23:00:00 NR -23.60 156.80
SP 1916-02-13 00:00:00 NR -23.88 156.81
SP 03:00:00 NR -24.83 156.90
SP 06:00:00 NR -25.88 157.12
SP 09:00:00 NR -26.90 157.52
SP 11:00:00 NR -27.50 157.90
SP 12:00:00 NR -27.77 158.13
SP 15:00:00 NR -28.44 158.94
SP 18:00:00 NR -28.95 159.90
SP 21:00:00 NR -29.36 160.96
SP 23:00:00 NR -29.60 161.70

Source Information

Agency Information
USA
TOKYO
CMA
HKO
NEWDELHI
REUNION
BOM
NADI
WELLINGTON
DS824
TD9636 cons_worldwide_trop_cyclone_18710101-19891231-006:Line=843
TD9635
NEUMANN
MLC

All available IBTrACS Data

SEASON BASIN SUBBASIN ISO_TIME_________ NATURE LAT LON DIST2LAND LANDFALL IFLAG USA SSHS TD9636 LAT TD9636 LON TD9636 STAGE STORM SPEED STORM DIR
Year degrees north degrees east km km 1 degrees north degrees east kts degrees
1916 SP EA 1916-02-10 23:00:00 NR -17.60 157.60 737 732 __________O___ -1 -17.60 157.60 7 8 169
1916 SP EA 1916-02-11 00:00:00 NR -17.74 157.61 732 715 __________P___ -1 -17.74 157.61 7 8 175
1916 SP EA 03:00:00 NR -18.15 157.65 711 690 __________P___ -1 -18.15 157.65 7 8 176
1916 SP EA 06:00:00 NR -18.54 157.67 690 678 __________P___ -1 -18.54 157.67 7 7 177
1916 SP EA 09:00:00 NR -18.90 157.69 678 672 __________P___ -1 -18.90 157.69 7 7 0
1916 SP EA 11:00:00 NR -19.10 157.70 672 670 __________O___ -1 -19.10 157.70 7 6 177
1916 SP EA 12:00:00 NR -19.19 157.70 670 666 __________P___ -1 -19.19 157.70 7 5 184
1916 SP EA 15:00:00 NR -19.43 157.69 666 663 __________P___ -1 -19.43 157.69 7 5 186
1916 SP EA 18:00:00 NR -19.66 157.67 661 660 __________P___ -1 -19.66 157.67 7 5 187
1916 SP EA 21:00:00 NR -19.91 157.63 669 668 __________P___ -1 -19.91 157.63 7 5 188
1916 SP EA 23:00:00 NR -20.10 157.60 668 667 __________O___ -1 -20.10 157.60 7 6 189
1916 SP EA 1916-02-12 00:00:00 NR -20.22 157.58 667 637 __________P___ -1 -20.22 157.58 7 8 188
1916 SP EA 03:00:00 NR -20.61 157.53 637 604 __________P___ -1 -20.61 157.53 7 8 188
1916 SP EA 06:00:00 NR -21.04 157.45 604 558 __________P___ -1 -21.04 157.45 7 9 189
1916 SP EA 09:00:00 NR -21.49 157.37 558 528 __________P___ -1 -21.49 157.37 7 9 191
1916 SP EA 11:00:00 NR -21.80 157.30 528 521 __________O___ -1 -21.80 157.30 7 9 194
1916 SP EA 12:00:00 NR -21.92 157.25 513 477 __________P___ -1 -21.92 157.25 7 8 204
1916 SP EA 15:00:00 NR -22.28 157.07 477 434 __________P___ -1 -22.28 157.07 7 8 203
1916 SP EA 18:00:00 NR -22.68 156.90 434 403 __________P___ -1 -22.68 156.90 7 9 195
1916 SP EA 21:00:00 NR -23.18 156.80 397 378 __________P___ -1 -23.18 156.80 7 11 185
1916 SP EA 23:00:00 NR -23.60 156.80 378 369 __________O___ -1 -23.60 156.80 7 14 178
1916 SP EA 1916-02-13 00:00:00 NR -23.88 156.81 365 347 __________P___ -1 -23.88 156.81 7 19 176
1916 SP EA 03:00:00 NR -24.83 156.90 353 352 __________P___ -1 -24.83 156.90 7 20 172
1916 SP EA 06:00:00 NR -25.88 157.12 384 384 __________P___ -1 -25.88 157.12 7 22 165
1916 SP EA 09:00:00 NR -26.90 157.52 410 410 __________P___ -1 -26.90 157.52 7 21 157
1916 SP EA 11:00:00 NR -27.50 157.90 429 429 __________O___ -1 -27.50 157.90 7 21 148
1916 SP EA 12:00:00 NR -27.77 158.13 443 443 __________P___ -1 -27.77 158.13 7 20 136
1916 SP EA 15:00:00 NR -28.44 158.94 517 517 __________P___ -1 -28.44 158.94 7 20 127
1916 SP EA 18:00:00 NR -28.95 159.90 612 612 __________P___ -1 -28.95 159.90 7 20 117
1916 SP MM 21:00:00 NR -29.36 160.96 719 719 __________P___ -1 -29.36 160.96 7 20 113
1916 SP MM 23:00:00 NR -29.60 161.70 788 __________O___ -1 -29.60 161.70 7 21 111